Time;durP1;ratioP1;P1;durP2;ratioP2;P2;SDS_P1;SDS_P2;PMS_P1;PMS_P2;Temp;Humidity;BMP_temperature;BMP_pressure;BME280_temperature;BME280_humidity;BME280_pressure;Samples;Min_cycle;Max_cycle;Signal;HPM_P1;HPM_P2
2021/06/18 00:01:23;;;;;;;;;;;27.70;95.20;;;;;;1791539;79;20206;-79
2021/06/18 00:03:53;;;;;;;;;;;27.70;95.20;;;;;;1777312;79;20188;-79
2021/06/18 00:06:22;;;;;;;;;;;27.80;95.10;;;;;;1793556;78;20218;-80
2021/06/18 00:08:52;;;;;;;;;;;27.80;95.00;;;;;;1736862;81;20181;-79
2021/06/18 00:11:22;;;;;;;;;;;27.90;95.10;;;;;;1800797;78;20196;-79
2021/06/18 00:13:52;;;;;;;;;;;27.90;95.00;;;;;;1803500;77;20137;-79
2021/06/18 00:16:23;;;;;;;;;;;27.90;95.00;;;;;;1788724;79;20192;-80
2021/06/18 00:18:52;;;;;;;;;;;27.90;95.00;;;;;;1738582;82;20238;-78
2021/06/18 00:21:22;;;;;;;;;;;27.90;94.90;;;;;;1782656;79;20237;-80
2021/06/18 00:23:52;;;;;;;;;;;27.90;95.00;;;;;;1784975;79;20411;-81
2021/06/18 00:26:27;;;;;;;;;;;27.80;95.10;;;;;;1803277;78;20275;-80
2021/06/18 00:28:58;;;;;;;;;;;27.80;95.20;;;;;;1800920;78;20117;-83
2021/06/18 00:31:28;;;;;;;;;;;27.80;95.30;;;;;;1797361;78;20171;-82
2021/06/18 00:33:58;;;;;;;;;;;27.80;95.20;;;;;;1809495;78;20244;-82
2021/06/18 00:36:27;;;;;;;;;;;27.80;95.20;;;;;;1802173;79;20188;-82
2021/06/18 00:38:57;;;;;;;;;;;27.80;95.20;;;;;;1797974;78;20224;-82
2021/06/18 00:41:26;;;;;;;;;;;27.80;95.10;;;;;;1773648;80;20240;-81
2021/06/18 00:43:56;;;;;;;;;;;27.90;95.10;;;;;;1799157;80;20255;-81
2021/06/18 00:46:26;;;;;;;;;;;27.90;95.20;;;;;;1739844;82;20224;-81
2021/06/18 00:48:56;;;;;;;;;;;28.00;95.20;;;;;;1777968;79;20525;-81
2021/06/18 00:51:26;;;;;;;;;;;28.10;95.10;;;;;;1764355;81;20490;-81
2021/06/18 00:53:56;;;;;;;;;;;28.10;94.60;;;;;;1765532;81;20226;-81
2021/06/18 00:56:26;;;;;;;;;;;28.20;94.60;;;;;;1743863;82;20189;-81
2021/06/18 00:58:57;;;;;;;;;;;28.20;94.40;;;;;;1765285;81;20210;-81
2021/06/18 01:01:27;;;;;;;;;;;28.30;94.40;;;;;;1774633;79;20151;-81
2021/06/18 01:03:57;;;;;;;;;;;28.40;94.30;;;;;;1783206;79;20140;-81
2021/06/18 01:06:28;;;;;;;;;;;28.40;94.10;;;;;;1788985;80;20192;-81
2021/06/18 01:08:59;;;;;;;;;;;28.40;94.10;;;;;;1784524;80;20193;-81
2021/06/18 01:11:29;;;;;;;;;;;28.40;94.20;;;;;;1767518;80;20246;-81
2021/06/18 01:13:58;;;;;;;;;;;28.50;94.10;;;;;;1728793;83;20215;-81
2021/06/18 01:16:29;;;;;;;;;;;28.50;94.00;;;;;;1772639;79;20218;-81
2021/06/18 01:19:00;;;;;;;;;;;28.60;94.00;;;;;;1798704;80;20181;-81
2021/06/18 01:21:31;;;;;;;;;;;28.70;93.90;;;;;;1798820;79;20215;-81
2021/06/18 01:24:02;;;;;;;;;;;28.80;93.70;;;;;;1773456;81;20214;-81
2021/06/18 01:26:33;;;;;;;;;;;29.00;93.50;;;;;;1759684;80;20136;-81
2021/06/18 01:29:03;;;;;;;;;;;29.10;93.40;;;;;;1775422;79;20231;-81
2021/06/18 01:31:34;;;;;;;;;;;29.30;93.10;;;;;;1767113;80;20175;-81
2021/06/18 01:34:05;;;;;;;;;;;29.40;92.20;;;;;;1780500;80;20292;-81
2021/06/18 01:36:35;;;;;;;;;;;29.50;91.90;;;;;;1781304;80;20206;-81
2021/06/18 01:39:06;;;;;;;;;;;29.70;92.00;;;;;;1779643;80;20188;-81
2021/06/18 01:41:36;;;;;;;;;;;29.80;91.20;;;;;;1768965;81;20442;-80
2021/06/18 01:44:06;;;;;;;;;;;29.90;91.00;;;;;;1751212;81;20137;-81
2021/06/18 01:46:37;;;;;;;;;;;30.00;90.70;;;;;;1780716;79;20453;-81
2021/06/18 01:49:08;;;;;;;;;;;30.20;90.40;;;;;;1766608;80;20179;-80
2021/06/18 01:51:38;;;;;;;;;;;30.20;90.40;;;;;;1762560;80;20236;-81
2021/06/18 01:54:09;;;;;;;;;;;30.30;90.20;;;;;;1750090;80;20194;-82
2021/06/18 01:56:40;;;;;;;;;;;30.40;90.30;;;;;;1813759;78;20162;-82
2021/06/18 01:59:11;;;;;;;;;;;30.60;90.10;;;;;;1821529;78;20290;-81
2021/06/18 02:04:31;;;;;;;;;;;30.90;88.90;;;;;;1927678;74;20145;-76
2021/06/18 02:07:01;;;;;;;;;;;30.90;86.50;;;;;;1914135;74;20272;-75
2021/06/18 02:09:32;;;;;;;;;;;31.00;86.90;;;;;;1920381;74;20224;-75
2021/06/18 02:12:01;;;;;;;;;;;31.00;87.30;;;;;;1913855;74;20421;-75
2021/06/18 02:14:33;;;;;;;;;;;31.10;86.50;;;;;;1915484;75;20220;-75
2021/06/18 02:17:03;;;;;;;;;;;31.20;85.00;;;;;;1916711;75;20574;-74
2021/06/18 02:19:35;;;;;;;;;;;31.30;84.70;;;;;;1919196;75;20201;-75
2021/06/18 02:22:06;;;;;;;;;;;31.40;83.60;;;;;;1909580;75;20161;-75
2021/06/18 02:24:37;;;;;;;;;;;31.50;81.40;;;;;;1913476;74;20217;-76
2021/06/18 02:27:07;;;;;;;;;;;31.60;81.40;;;;;;1916796;74;20238;-76
2021/06/18 02:29:37;;;;;;;;;;;31.80;79.80;;;;;;1919099;74;20203;-76
2021/06/18 02:32:07;;;;;;;;;;;31.80;80.40;;;;;;1918174;74;20212;-77
2021/06/18 02:34:38;;;;;;;;;;;32.00;79.70;;;;;;1920574;75;20161;-77
2021/06/18 02:37:09;;;;;;;;;;;32.00;79.50;;;;;;1921313;75;20165;-77
2021/06/18 02:39:42;;;;;;;;;;;32.00;79.30;;;;;;1906887;74;20193;-77
2021/06/18 02:42:12;;;;;;;;;;;32.00;79.70;;;;;;1905581;74;20194;-77
2021/06/18 02:44:42;;;;;;;;;;;32.10;79.30;;;;;;1889827;75;20638;-77
2021/06/18 02:47:13;;;;;;;;;;;32.10;79.40;;;;;;1916450;74;20228;-77
2021/06/18 02:49:44;;;;;;;;;;;32.10;78.50;;;;;;1873265;76;20133;-77
2021/06/18 02:52:15;;;;;;;;;;;32.10;77.90;;;;;;1846215;77;20237;-77
2021/06/18 02:54:47;;;;;;;;;;;32.10;77.10;;;;;;1861462;76;20223;-77
2021/06/18 02:57:18;;;;;;;;;;;32.20;77.40;;;;;;1844791;78;20135;-77
2021/06/18 02:59:49;;;;;;;;;;;32.30;76.80;;;;;;1845602;78;20515;-77
2021/06/18 03:02:23;;;;;;;;;;;32.40;77.10;;;;;;1843487;78;20178;-78
2021/06/18 03:04:52;;;;;;;;;;;32.40;75.70;;;;;;1836485;77;20211;-76
2021/06/18 03:07:24;;;;;;;;;;;32.40;74.70;;;;;;1836703;78;20131;-75
2021/06/18 03:09:55;;;;;;;;;;;32.40;75.40;;;;;;1834519;78;20206;-76
2021/06/18 03:15:16;;;;;;;;;;;32.20;76.40;;;;;;1761986;79;20251;-76
2021/06/18 03:17:46;;;;;;;;;;;32.20;75.50;;;;;;1748535;80;20339;-74
2021/06/18 03:20:19;;;;;;;;;;;32.10;75.10;;;;;;1767398;81;20232;-75
2021/06/18 03:22:49;;;;;;;;;;;32.00;75.80;;;;;;1750865;80;20247;-75
2021/06/18 03:25:21;;;;;;;;;;;32.00;76.00;;;;;;1740186;80;20141;-75
2021/06/18 03:27:51;;;;;;;;;;;32.00;77.00;;;;;;1731350;80;20322;-76
2021/06/18 03:30:23;;;;;;;;;;;32.10;75.40;;;;;;1725377;81;20293;-77
2021/06/18 03:32:54;;;;;;;;;;;32.10;74.40;;;;;;1735188;81;20607;-77
2021/06/18 03:35:24;;;;;;;;;;;32.10;73.60;;;;;;1752464;80;20216;-77
2021/06/18 03:37:56;;;;;;;;;;;32.10;74.30;;;;;;1751797;79;20149;-76
2021/06/18 03:40:26;;;;;;;;;;;32.20;73.50;;;;;;1821841;77;20180;-77
2021/06/18 03:42:56;;;;;;;;;;;32.30;73.10;;;;;;1859350;77;20134;-77
2021/06/18 03:45:26;;;;;;;;;;;32.40;72.50;;;;;;1856303;77;20186;-77
2021/06/18 03:47:59;;;;;;;;;;;32.60;72.80;;;;;;1841903;77;20232;-77
2021/06/18 03:50:29;;;;;;;;;;;32.70;71.60;;;;;;1856735;77;20178;-76
2021/06/18 03:52:59;;;;;;;;;;;32.90;71.50;;;;;;1846708;77;21006;-77
2021/06/18 03:55:29;;;;;;;;;;;33.10;70.20;;;;;;1846904;77;20163;-76
2021/06/18 03:58:00;;;;;;;;;;;33.20;69.50;;;;;;1848225;77;20288;-77
2021/06/18 04:00:31;;;;;;;;;;;33.30;68.90;;;;;;1769124;81;20198;-76
2021/06/18 04:03:02;;;;;;;;;;;33.40;69.40;;;;;;1847463;77;20210;-76
2021/06/18 04:05:33;;;;;;;;;;;33.30;69.80;;;;;;1822944;77;20168;-76
2021/06/18 04:08:03;;;;;;;;;;;33.30;68.90;;;;;;1836331;76;20159;-77
2021/06/18 04:10:34;;;;;;;;;;;33.40;68.50;;;;;;1839419;77;20166;-76
2021/06/18 04:13:03;;;;;;;;;;;33.50;69.90;;;;;;1842176;77;20599;-76
2021/06/18 04:15:36;;;;;;;;;;;33.50;70.50;;;;;;1846281;77;20278;-78
2021/06/18 04:18:06;;;;;;;;;;;33.60;67.90;;;;;;1827663;78;20186;-77
2021/06/18 04:20:38;;;;;;;;;;;33.60;66.10;;;;;;1831835;78;20242;-77
2021/06/18 04:23:10;;;;;;;;;;;33.60;65.70;;;;;;1828213;78;20431;-77
2021/06/18 04:25:39;;;;;;;;;;;33.70;61.80;;;;;;1828001;77;20163;-76
2021/06/18 04:28:09;;;;;;;;;;;33.70;61.30;;;;;;1828353;78;20251;-77
2021/06/18 04:30:39;;;;;;;;;;;33.70;64.00;;;;;;1830976;78;20136;-76
2021/06/18 04:33:09;;;;;;;;;;;33.80;65.70;;;;;;1832151;78;20191;-77
2021/06/18 04:35:39;;;;;;;;;;;33.90;65.80;;;;;;1827962;78;20221;-76
2021/06/18 04:38:09;;;;;;;;;;;33.80;67.00;;;;;;1834269;78;20206;-76
2021/06/18 04:40:38;;;;;;;;;;;33.80;65.50;;;;;;1831783;78;20124;-76
2021/06/18 04:43:08;;;;;;;;;;;33.80;66.10;;;;;;1819259;78;20135;-76
2021/06/18 04:45:38;;;;;;;;;;;33.80;66.50;;;;;;1832198;78;20297;-76
2021/06/18 04:48:08;;;;;;;;;;;33.90;67.10;;;;;;1827002;78;20474;-78
2021/06/18 04:50:38;;;;;;;;;;;33.90;67.10;;;;;;1826952;78;20195;-77
2021/06/18 04:53:10;;;;;;;;;;;33.90;65.00;;;;;;1823564;78;20237;-75
2021/06/18 04:55:40;;;;;;;;;;;33.90;65.30;;;;;;1832385;78;20159;-76
2021/06/18 04:58:13;;;;;;;;;;;33.90;63.70;;;;;;1827373;78;20487;-77
2021/06/18 05:00:43;;;;;;;;;;;33.90;63.90;;;;;;1830994;78;20211;-76
2021/06/18 05:03:13;;;;;;;;;;;33.90;64.80;;;;;;1805757;79;20223;-77
2021/06/18 05:05:43;;;;;;;;;;;33.90;65.70;;;;;;1837972;78;20509;-77
2021/06/18 05:08:13;;;;;;;;;;;34.10;63.50;;;;;;1833459;78;20214;-76
2021/06/18 05:10:43;;;;;;;;;;;34.20;62.70;;;;;;1833711;78;20214;-76
2021/06/18 05:13:17;;;;;;;;;;;34.30;63.80;;;;;;1821702;78;20202;-77
2021/06/18 05:15:51;;;;;;;;;;;34.30;63.90;;;;;;1814113;77;20214;-76
2021/06/18 05:18:17;;;;;;;;;;;34.20;64.00;;;;;;1833834;76;20203;-75
2021/06/18 05:20:47;;;;;;;;;;;34.10;64.20;;;;;;1831447;76;20187;-75
2021/06/18 05:23:17;;;;;;;;;;;34.00;62.40;;;;;;1802508;76;20255;-76
2021/06/18 05:25:47;;;;;;;;;;;34.10;64.10;;;;;;1827539;76;20190;-76
2021/06/18 05:28:17;;;;;;;;;;;34.10;63.90;;;;;;1812610;79;20129;-77
2021/06/18 05:30:47;;;;;;;;;;;34.20;62.40;;;;;;1807033;79;20416;-78
2021/06/18 05:33:18;;;;;;;;;;;34.30;62.90;;;;;;1833555;76;20196;-77
2021/06/18 05:35:48;;;;;;;;;;;34.40;60.70;;;;;;1847571;76;20402;-76
2021/06/18 05:38:18;;;;;;;;;;;34.40;59.70;;;;;;1830648;77;20167;-76
2021/06/18 05:40:59;;;;;;;;;;;;;;;;;;;;;
2021/06/18 05:43:59;;;;;;;;;;;34.40;59.90;;;;;;1849790;76;20254;-77
2021/06/18 05:46:17;;;;;;;;;;;34.40;61.00;;;;;;1832977;76;20230;-77
2021/06/18 05:51:53;;;;;;;;;;;34.50;63.20;;;;;;1726291;81;20193;-75
2021/06/18 05:54:25;;;;;;;;;;;34.50;61.90;;;;;;1731739;81;20225;-75
2021/06/18 05:56:55;;;;;;;;;;;34.30;61.40;;;;;;1719559;81;20278;-75
2021/06/18 05:59:25;;;;;;;;;;;34.20;62.70;;;;;;1719068;82;20284;-78
2021/06/18 06:02:15;;;;;;;;;;;34.20;63.50;;;;;;1697889;81;20293;-77
2021/06/18 06:05:15;;;;;;;;;;;34.10;62.60;;;;;;1712358;82;20276;-78
2021/06/18 06:07:47;;;;;;;;;;;34.00;63.10;;;;;;1735363;81;20554;-78
2021/06/18 06:10:18;;;;;;;;;;;33.90;63.30;;;;;;1725614;81;20280;-78
2021/06/18 06:15:50;;;;;;;;;;;34.00;63.90;;;;;;1652291;86;20489;-77
2021/06/18 06:18:28;;;;;;;;;;;34.10;63.20;;;;;;1643952;86;20241;-77
2021/06/18 06:21:14;;;;;;;;;;;34.10;63.50;;;;;;1676126;83;20273;-77
2021/06/18 06:23:43;;;;;;;;;;;34.10;62.60;;;;;;1687062;84;20239;-78
2021/06/18 06:26:15;;;;;;;;;;;34.10;62.20;;;;;;1683423;83;20232;-78
2021/06/18 06:28:44;;;;;;;;;;;34.20;61.90;;;;;;1697188;82;20319;-77
2021/06/18 06:31:14;;;;;;;;;;;34.30;60.20;;;;;;1738681;82;20497;-77
2021/06/18 06:33:44;;;;;;;;;;;34.30;61.00;;;;;;1732170;82;21099;-77
2021/06/18 06:36:25;;;;;;;;;;;34.30;60.10;;;;;;1732012;81;20328;-77
2021/06/18 06:41:46;;;;;;;;;;;34.20;62.60;;;;;;1724377;82;20210;-77
2021/06/18 06:44:19;;;;;;;;;;;34.10;60.90;;;;;;1731941;82;20324;-77
2021/06/18 06:46:52;;;;;;;;;;;34.00;61.70;;;;;;1732996;81;20668;-76
2021/06/18 06:49:25;;;;;;;;;;;33.90;61.10;;;;;;1703607;82;20220;-77
2021/06/18 06:52:02;;;;;;;;;;;33.90;61.80;;;;;;1741110;79;20298;-77
2021/06/18 06:58:19;;;;;;;;;;;33.70;61.30;;;;;;1751645;81;20510;-77
2021/06/18 06:58:25;;;;;;;;;;;33.80;61.30;;;;;;1767898;80;20230;-77
2021/06/18 07:00:50;;;;;;;;;;;33.70;61.20;;;;;;1745711;81;20232;-78
2021/06/18 07:03:20;;;;;;;;;;;33.70;63.00;;;;;;1763355;78;20253;-78
2021/06/18 07:05:50;;;;;;;;;;;33.70;62.70;;;;;;1822456;77;20223;-78
2021/06/18 07:08:25;;;;;;;;;;;33.90;62.80;;;;;;1818825;77;20214;-78
2021/06/18 07:10:54;;;;;;;;;;;34.00;62.90;;;;;;1821180;77;20311;-78
2021/06/18 07:16:29;;;;;;;;;;;34.20;60.60;;;;;;1817044;77;20210;-78
2021/06/18 07:18:59;;;;;;;;;;;34.30;60.30;;;;;;1738956;80;20518;-78
2021/06/18 07:21:32;;;;;;;;;;;34.30;59.30;;;;;;1790202;78;20237;-78
2021/06/18 07:24:08;;;;;;;;;;;34.30;59.50;;;;;;1781588;80;20249;-77
2021/06/18 07:26:41;;;;;;;;;;;34.30;59.60;;;;;;1715791;82;20189;-78
2021/06/18 07:29:11;;;;;;;;;;;34.30;59.90;;;;;;1729375;81;20230;-78
2021/06/18 07:31:43;;;;;;;;;;;34.30;59.70;;;;;;1723773;81;20210;-78
2021/06/18 07:34:12;;;;;;;;;;;34.30;59.50;;;;;;1726987;81;20514;-77
2021/06/18 07:36:42;;;;;;;;;;;34.40;59.90;;;;;;1734832;81;20188;-78
2021/06/18 07:39:12;;;;;;;;;;;34.40;58.10;;;;;;1736188;80;20143;-78
2021/06/18 07:41:42;;;;;;;;;;;34.50;58.00;;;;;;1774935;78;20235;-77
2021/06/18 07:44:19;;;;;;;;;;;34.50;57.30;;;;;;1786626;79;20205;-76
2021/06/18 07:46:46;;;;;;;;;;;34.50;58.30;;;;;;1789732;79;20276;-78
2021/06/18 07:49:16;;;;;;;;;;;34.60;59.00;;;;;;1788918;79;20140;-78
2021/06/18 07:51:46;;;;;;;;;;;34.70;57.60;;;;;;1789578;79;20263;-79
2021/06/18 07:54:16;;;;;;;;;;;34.80;58.10;;;;;;1777335;80;20134;-79
2021/06/18 07:56:47;;;;;;;;;;;34.90;57.60;;;;;;1785896;80;20252;-78
2021/06/18 07:59:20;;;;;;;;;;;35.00;56.60;;;;;;1782872;80;20258;-79
2021/06/18 08:01:54;;;;;;;;;;;35.00;56.40;;;;;;1783355;80;20220;-79
2021/06/18 08:04:22;;;;;;;;;;;35.00;56.00;;;;;;1766956;80;20161;-79
2021/06/18 08:06:52;;;;;;;;;;;34.90;56.90;;;;;;1745129;81;20246;-77
2021/06/18 08:09:22;;;;;;;;;;;34.90;55.40;;;;;;1766961;80;20458;-78
2021/06/18 08:11:52;;;;;;;;;;;34.90;56.50;;;;;;1770510;80;20238;-78
2021/06/18 08:14:22;;;;;;;;;;;34.90;57.00;;;;;;1770758;81;20210;-78
2021/06/18 08:16:51;;;;;;;;;;;35.00;56.90;;;;;;1777238;79;20234;-78
2021/06/18 08:19:21;;;;;;;;;;;35.00;57.30;;;;;;1794490;78;20250;-79
2021/06/18 08:21:51;;;;;;;;;;;35.00;57.10;;;;;;1796205;78;20252;-78
2021/06/18 08:24:21;;;;;;;;;;;34.90;57.10;;;;;;1788333;79;20175;-79
2021/06/18 08:26:50;;;;;;;;;;;34.90;56.30;;;;;;1797201;79;20663;-78
2021/06/18 08:29:20;;;;;;;;;;;34.90;56.80;;;;;;1799137;79;20247;-79
2021/06/18 08:31:50;;;;;;;;;;;34.80;56.90;;;;;;1799077;79;20498;-79
2021/06/18 08:34:20;;;;;;;;;;;34.80;57.10;;;;;;1807924;79;20219;-77
2021/06/18 08:36:52;;;;;;;;;;;34.80;57.30;;;;;;1802665;79;20324;-78
2021/06/18 08:39:21;;;;;;;;;;;34.80;57.00;;;;;;1804908;79;20253;-79
2021/06/18 08:41:51;;;;;;;;;;;34.80;57.30;;;;;;1785429;78;20244;-79
2021/06/18 08:44:21;;;;;;;;;;;34.70;56.60;;;;;;1798963;79;20211;-80
2021/06/18 08:46:51;;;;;;;;;;;34.60;57.30;;;;;;1807029;79;20223;-79
2021/06/18 08:49:22;;;;;;;;;;;34.60;57.40;;;;;;1788292;79;20222;-77
2021/06/18 08:51:52;;;;;;;;;;;34.60;57.10;;;;;;1797033;79;20210;-77
2021/06/18 08:54:41;;;;;;;;;;;34.60;58.00;;;;;;1782786;79;20473;-77
2021/06/18 08:56:53;;;;;;;;;;;34.60;57.50;;;;;;1763510;79;20175;-78
2021/06/18 08:59:23;;;;;;;;;;;34.50;58.20;;;;;;1754627;80;20217;-78
2021/06/18 09:01:53;;;;;;;;;;;34.50;58.20;;;;;;1786669;79;20201;-79
2021/06/18 09:04:23;;;;;;;;;;;34.50;57.80;;;;;;1797378;79;20171;-79
2021/06/18 09:06:53;;;;;;;;;;;34.40;57.50;;;;;;1772603;80;20177;-79
2021/06/18 09:09:25;;;;;;;;;;;34.40;57.60;;;;;;1805584;78;20246;-79
2021/06/18 09:11:56;;;;;;;;;;;34.40;57.50;;;;;;1730878;82;20214;-78
2021/06/18 09:14:28;;;;;;;;;;;34.40;57.10;;;;;;1735680;81;20248;-78
2021/06/18 09:16:59;;;;;;;;;;;34.40;57.30;;;;;;1781202;79;20190;-78
2021/06/18 09:19:29;;;;;;;;;;;34.30;57.80;;;;;;1784927;79;20140;-78
2021/06/18 09:22:00;;;;;;;;;;;34.30;57.70;;;;;;1785072;79;20175;-77
2021/06/18 09:24:32;;;;;;;;;;;34.30;59.10;;;;;;1790137;79;20230;-79
2021/06/18 09:27:02;;;;;;;;;;;34.30;57.80;;;;;;1801575;78;20214;-79
2021/06/18 09:29:33;;;;;;;;;;;34.30;57.70;;;;;;1782787;79;20217;-79
2021/06/18 09:32:04;;;;;;;;;;;34.30;56.20;;;;;;1783427;79;20230;-79
2021/06/18 09:34:39;;;;;;;;;;;34.30;56.20;;;;;;1798129;79;20234;-78
2021/06/18 09:37:05;;;;;;;;;;;34.40;56.30;;;;;;1783460;79;20139;-79
2021/06/18 09:39:35;;;;;;;;;;;34.40;56.30;;;;;;1783479;79;20214;-79
2021/06/18 09:42:06;;;;;;;;;;;34.40;55.80;;;;;;1784119;80;20218;-78
2021/06/18 09:44:36;;;;;;;;;;;34.50;56.30;;;;;;1784484;80;20186;-79
2021/06/18 09:47:08;;;;;;;;;;;34.50;56.60;;;;;;1774210;79;20147;-78
2021/06/18 09:49:39;;;;;;;;;;;34.40;56.10;;;;;;1793502;79;20280;-79
2021/06/18 09:52:12;;;;;;;;;;;34.50;56.10;;;;;;1793146;79;20225;-79
2021/06/18 09:54:45;;;;;;;;;;;34.50;56.10;;;;;;1788738;79;20296;-79
2021/06/18 09:57:16;;;;;;;;;;;34.50;55.60;;;;;;1799155;79;20199;-75
2021/06/18 09:59:46;;;;;;;;;;;34.50;56.40;;;;;;1792200;79;20223;-76
2021/06/18 10:02:17;;;;;;;;;;;34.50;56.10;;;;;;1793506;78;20240;-75
2021/06/18 10:04:52;;;;;;;;;;;34.50;55.00;;;;;;1799655;78;20242;-75
2021/06/18 10:07:26;;;;;;;;;;;34.40;54.80;;;;;;1797102;78;20318;-75
2021/06/18 10:09:50;;;;;;;;;;;34.40;55.70;;;;;;1797497;78;20208;-76
2021/06/18 10:12:21;;;;;;;;;;;34.40;55.30;;;;;;1804437;78;20508;-77
2021/06/18 10:15:06;;;;;;;;;;;34.40;55.20;;;;;;1797220;79;20469;-77
2021/06/18 10:17:26;;;;;;;;;;;34.40;55.60;;;;;;1799364;78;20186;-77
2021/06/18 10:19:56;;;;;;;;;;;34.40;55.60;;;;;;1793898;79;20170;-76
2021/06/18 10:22:27;;;;;;;;;;;34.30;55.50;;;;;;1792263;79;20521;-76
2021/06/18 10:25:00;;;;;;;;;;;34.40;55.00;;;;;;1791757;79;20177;-77
2021/06/18 10:27:31;;;;;;;;;;;34.30;55.60;;;;;;1799025;79;20247;-78
2021/06/18 10:30:07;;;;;;;;;;;34.30;56.10;;;;;;1787780;76;20258;-76
2021/06/18 10:32:38;;;;;;;;;;;34.30;56.60;;;;;;1797258;79;20630;-77
2021/06/18 10:35:08;;;;;;;;;;;34.20;56.10;;;;;;1783855;80;20210;-77
2021/06/18 10:37:39;;;;;;;;;;;34.20;56.30;;;;;;1783463;79;20493;-76
2021/06/18 10:40:10;;;;;;;;;;;34.20;56.00;;;;;;1790305;79;20234;-77
2021/06/18 10:42:42;;;;;;;;;;;34.20;56.40;;;;;;1793494;79;20175;-77
2021/06/18 10:45:12;;;;;;;;;;;34.10;56.40;;;;;;1800705;79;20183;-77
2021/06/18 10:47:51;;;;;;;;;;;34.10;56.60;;;;;;1789059;79;20222;-88
2021/06/18 10:50:19;;;;;;;;;;;34.10;56.70;;;;;;1790090;79;20137;-87
2021/06/18 10:52:53;;;;;;;;;;;34.10;56.90;;;;;;1789905;78;20174;-88
2021/06/18 10:55:21;;;;;;;;;;;34.10;58.50;;;;;;1785318;80;20193;-88
2021/06/18 10:57:52;;;;;;;;;;;34.10;57.00;;;;;;1789051;79;20162;-88
2021/06/18 11:00:23;;;;;;;;;;;34.00;56.90;;;;;;1798644;78;20409;-88
2021/06/18 11:02:54;;;;;;;;;;;34.00;56.90;;;;;;1803049;78;20228;-88
2021/06/18 11:05:25;;;;;;;;;;;33.90;57.00;;;;;;1791119;78;20161;-88
2021/06/18 11:07:57;;;;;;;;;;;33.90;57.00;;;;;;1803900;80;20228;-88
2021/06/18 11:10:28;;;;;;;;;;;33.90;57.30;;;;;;1802187;79;20172;-88
2021/06/18 11:12:58;;;;;;;;;;;33.80;57.20;;;;;;1802495;80;20240;-88
2021/06/18 11:15:29;;;;;;;;;;;33.80;57.80;;;;;;1803595;80;20138;-87
2021/06/18 11:20:36;;;;;;;;;;;33.80;57.10;;;;;;1834686;77;20159;-89
2021/06/18 11:23:06;;;;;;;;;;;33.80;57.10;;;;;;1815180;78;20253;-88
2021/06/18 11:25:40;;;;;;;;;;;33.80;57.20;;;;;;1822858;77;20137;-88
2021/06/18 11:28:09;;;;;;;;;;;33.70;57.20;;;;;;1836436;77;20201;-88
2021/06/18 11:30:41;;;;;;;;;;;33.70;57.30;;;;;;1827090;77;20244;-88
2021/06/18 11:33:14;;;;;;;;;;;33.70;57.40;;;;;;1835173;77;20545;-87
2021/06/18 11:35:44;;;;;;;;;;;33.60;57.60;;;;;;1833248;75;20125;-88
2021/06/18 11:38:17;;;;;;;;;;;33.60;57.80;;;;;;1813295;78;20224;-89
2021/06/18 11:40:48;;;;;;;;;;;33.60;58.30;;;;;;1808550;78;20137;-88
2021/06/18 11:43:21;;;;;;;;;;;33.60;58.00;;;;;;1804237;78;20554;-87
2021/06/18 11:45:53;;;;;;;;;;;33.50;57.90;;;;;;1815982;78;20307;-88
2021/06/18 11:48:23;;;;;;;;;;;33.50;58.10;;;;;;1823075;77;20199;-88
2021/06/18 11:50:53;;;;;;;;;;;33.50;58.80;;;;;;1827863;77;20229;-88
2021/06/18 11:53:26;;;;;;;;;;;33.50;59.30;;;;;;1835017;77;20575;-89
2021/06/18 11:55:57;;;;;;;;;;;33.40;59.20;;;;;;1819879;77;20202;-88
2021/06/18 11:58:28;;;;;;;;;;;33.40;59.40;;;;;;1821923;77;20158;-88
2021/06/18 12:00:57;;;;;;;;;;;33.40;59.80;;;;;;1824672;78;20125;-88
2021/06/18 12:03:28;;;;;;;;;;;33.30;60.40;;;;;;1829787;77;20140;-89
2021/06/18 12:05:57;;;;;;;;;;;33.20;60.90;;;;;;1831797;77;20682;-87
2021/06/18 12:08:27;;;;;;;;;;;33.20;61.30;;;;;;1825848;77;20182;-88
2021/06/18 12:10:57;;;;;;;;;;;33.20;61.70;;;;;;1825873;77;20192;-88
2021/06/18 12:13:26;;;;;;;;;;;33.10;62.10;;;;;;1818509;78;20176;-88
2021/06/18 12:15:57;;;;;;;;;;;33.00;62.50;;;;;;1827081;76;20405;-88
2021/06/18 12:18:27;;;;;;;;;;;33.00;62.80;;;;;;1828507;76;20398;-89
2021/06/18 12:20:56;;;;;;;;;;;33.00;63.10;;;;;;1824016;78;20216;-88
2021/06/18 12:23:26;;;;;;;;;;;32.90;63.20;;;;;;1827853;78;20224;-88
2021/06/18 12:25:56;;;;;;;;;;;32.90;63.40;;;;;;1828880;78;20135;-89
2021/06/18 12:28:27;;;;;;;;;;;32.80;63.60;;;;;;1841446;77;20134;-87
2021/06/18 12:30:58;;;;;;;;;;;32.80;63.00;;;;;;1839594;77;20441;-88
2021/06/18 12:33:28;;;;;;;;;;;32.80;62.70;;;;;;1821194;78;20216;-88
2021/06/18 12:35:58;;;;;;;;;;;32.80;63.20;;;;;;1817710;78;20471;-88
2021/06/18 12:38:29;;;;;;;;;;;32.80;63.60;;;;;;1828199;77;20245;-88
2021/06/18 12:40:59;;;;;;;;;;;32.80;63.70;;;;;;1819650;77;20125;-87
2021/06/18 12:43:30;;;;;;;;;;;32.80;64.10;;;;;;1819013;77;20164;-86
2021/06/18 12:46:00;;;;;;;;;;;32.70;64.20;;;;;;1816685;77;20222;-87
2021/06/18 12:48:32;;;;;;;;;;;32.70;64.30;;;;;;1838763;77;20207;-88
2021/06/18 12:51:03;;;;;;;;;;;32.70;64.20;;;;;;1829832;77;20227;-88
2021/06/18 12:53:44;;;;;;;;;;;32.70;64.40;;;;;;1828731;77;20183;-88
2021/06/18 12:56:06;;;;;;;;;;;32.70;65.00;;;;;;1826594;77;20207;-88
2021/06/18 12:58:36;;;;;;;;;;;32.60;64.90;;;;;;1831097;77;20252;-88
2021/06/18 13:01:08;;;;;;;;;;;32.50;64.40;;;;;;1837758;77;20215;-87
2021/06/18 13:03:42;;;;;;;;;;;32.50;64.80;;;;;;1842026;77;20284;-87
2021/06/18 13:06:11;;;;;;;;;;;32.60;64.60;;;;;;1835436;77;20180;-87
2021/06/18 13:08:42;;;;;;;;;;;32.60;64.10;;;;;;1835446;77;20205;-87
2021/06/18 13:11:13;;;;;;;;;;;32.60;63.20;;;;;;1830943;77;20209;-87
2021/06/18 13:13:42;;;;;;;;;;;32.60;63.70;;;;;;1838548;77;20164;-87
2021/06/18 13:16:13;;;;;;;;;;;32.60;63.50;;;;;;1830188;77;20197;-89
2021/06/18 13:18:44;;;;;;;;;;;32.60;63.10;;;;;;1829403;77;20494;-88
2021/06/18 13:21:14;;;;;;;;;;;32.50;63.30;;;;;;1811924;77;20158;-88
2021/06/18 13:23:44;;;;;;;;;;;32.50;63.80;;;;;;1816410;77;20180;-89
2021/06/18 13:26:15;;;;;;;;;;;32.50;64.20;;;;;;1826968;79;20530;-88
2021/06/18 13:28:46;;;;;;;;;;;32.40;64.60;;;;;;1825662;79;20498;-88
2021/06/18 13:31:17;;;;;;;;;;;32.40;65.50;;;;;;1826534;79;20137;-88
2021/06/18 13:33:49;;;;;;;;;;;32.40;66.20;;;;;;1845973;77;20135;-89
2021/06/18 13:36:20;;;;;;;;;;;32.40;66.70;;;;;;1837022;77;20174;-89
2021/06/18 13:38:51;;;;;;;;;;;32.30;67.10;;;;;;1828656;77;20177;-84
2021/06/18 13:41:20;;;;;;;;;;;32.30;67.60;;;;;;1827177;77;20176;-92
2021/06/18 13:43:50;;;;;;;;;;;32.30;68.80;;;;;;1828381;77;20244;-91
2021/06/18 13:49:23;;;;;;;;;;;32.10;69.80;;;;;;1841516;74;20290;-94
2021/06/18 13:51:53;;;;;;;;;;;32.10;70.50;;;;;;1827738;77;20218;-93
2021/06/18 13:54:23;;;;;;;;;;;31.90;70.70;;;;;;1830669;77;20227;-94
2021/06/18 13:56:52;;;;;;;;;;;31.90;71.30;;;;;;1816277;77;20186;-93
2021/06/18 13:59:23;;;;;;;;;;;31.90;72.30;;;;;;1823056;77;20239;-93
2021/06/18 14:01:54;;;;;;;;;;;31.70;72.70;;;;;;1829522;77;20595;-93
2021/06/18 14:04:24;;;;;;;;;;;31.70;72.90;;;;;;1826301;77;20178;-93
2021/06/18 14:06:55;;;;;;;;;;;31.70;73.50;;;;;;1840893;77;20213;-92
2021/06/18 14:09:25;;;;;;;;;;;31.60;73.70;;;;;;1829940;77;20193;-93
2021/06/18 14:11:54;;;;;;;;;;;31.60;74.00;;;;;;1816597;77;20261;-93
2021/06/18 14:17:18;;;;;;;;;;;31.50;74.80;;;;;;1763277;79;20257;-93
2021/06/18 14:19:49;;;;;;;;;;;31.50;76.00;;;;;;1761469;79;20217;-91
2021/06/18 14:22:32;;;;;;;;;;;;;;;;;;;;;
2021/06/18 14:25:02;;;;;;;;;;;31.40;76.20;;;;;;1943692;73;20181;-93
2021/06/18 14:27:31;;;;;;;;;;;31.40;76.00;;;;;;1905308;75;20193;-90
2021/06/18 14:30:01;;;;;;;;;;;31.30;76.20;;;;;;1905216;75;20226;-92
2021/06/18 14:32:31;;;;;;;;;;;31.30;76.30;;;;;;1902396;75;20201;-90
2021/06/18 14:35:07;;;;;;;;;;;31.30;76.70;;;;;;1843277;76;20191;-86
2021/06/18 14:37:32;;;;;;;;;;;31.30;77.50;;;;;;1851119;77;20637;-93
2021/06/18 14:40:04;;;;;;;;;;;31.30;77.90;;;;;;1850102;76;20123;-90
2021/06/18 14:42:33;;;;;;;;;;;31.20;77.60;;;;;;1865764;76;20219;-90
2021/06/18 14:45:03;;;;;;;;;;;31.20;77.90;;;;;;1845595;77;20509;-88
2021/06/18 14:47:33;;;;;;;;;;;31.20;77.40;;;;;;1897446;74;20201;-91
2021/06/18 14:50:04;;;;;;;;;;;31.20;77.90;;;;;;1904824;75;20232;-92
2021/06/18 14:52:35;;;;;;;;;;;31.20;78.10;;;;;;1903464;75;20138;-92
2021/06/18 14:55:06;;;;;;;;;;;31.10;78.10;;;;;;1902974;74;20252;-93
2021/06/18 14:57:37;;;;;;;;;;;31.20;78.50;;;;;;1906847;75;20491;-92
2021/06/18 15:00:08;;;;;;;;;;;31.10;78.30;;;;;;1867017;76;20228;-91
2021/06/18 15:02:37;;;;;;;;;;;31.00;78.30;;;;;;1845453;77;20542;-91
2021/06/18 15:05:11;;;;;;;;;;;31.00;78.30;;;;;;1899874;75;20210;-93
2021/06/18 15:07:39;;;;;;;;;;;31.00;78.60;;;;;;1902267;75;20119;-91